createdAt,value
2022-07-30T00:02:20.729Z,53.93
2022-07-30T00:04:48.956Z,54.07
2022-07-30T00:07:16.805Z,55.63
2022-07-30T00:09:44.657Z,54.36
2022-07-30T00:12:12.837Z,55.49
2022-07-30T00:14:40.646Z,55.61
2022-07-30T00:17:08.781Z,55.21
2022-07-30T00:19:37.137Z,54.32
2022-07-30T00:22:05.025Z,54.77
2022-07-30T00:24:32.822Z,54.08
2022-07-30T00:27:01.115Z,54.34
2022-07-30T00:29:29.157Z,53.70
2022-07-30T00:31:56.924Z,54.58
2022-07-30T00:34:25.147Z,54.16
2022-07-30T00:36:53.016Z,54.10
2022-07-30T00:39:20.806Z,54.07
2022-07-30T00:41:57.364Z,54.14
2022-07-30T00:44:25.525Z,54.79
2022-07-30T00:46:54.336Z,54.24
2022-07-30T00:49:22.310Z,55.09
2022-07-30T00:51:50.355Z,55.16
2022-07-30T00:54:18.635Z,53.83
2022-07-30T00:56:46.536Z,53.55
2022-07-30T00:59:15.106Z,53.94
2022-07-30T01:01:43.464Z,54.83
2022-07-30T01:04:12.134Z,55.36
2022-07-30T01:06:40.644Z,55.74
2022-07-30T01:09:09.164Z,54.35
2022-07-30T01:11:40.785Z,54.62
2022-07-30T01:14:09.791Z,54.88
2022-07-30T01:16:39.766Z,54.15
2022-07-30T01:19:34.355Z,55.01
2022-07-30T01:22:21.236Z,55.15
2022-07-30T01:25:04.111Z,55.19
2022-07-30T01:27:57.655Z,56.03
2022-07-30T01:30:29.494Z,55.47
2022-07-30T01:32:59.335Z,55.02
2022-07-30T01:35:28.680Z,54.79
2022-07-30T01:37:57.978Z,54.29
2022-07-30T01:40:27.855Z,54.63
2022-07-30T01:42:57.795Z,54.72
2022-07-30T01:45:27.501Z,55.32
2022-07-30T01:47:59.335Z,54.78
2022-07-30T01:50:29.127Z,54.66
2022-07-30T01:52:57.774Z,55.59
2022-07-30T01:55:31.166Z,55.38
2022-07-30T01:58:00.684Z,55.69
2022-07-30T02:00:35.190Z,56.15
2022-07-30T02:03:05.160Z,55.75
2022-07-30T02:05:35.355Z,55.62
2022-07-30T02:08:42.924Z,56.72
2022-07-30T02:11:13.126Z,56.35
2022-07-30T02:13:51.506Z,56.26
2022-07-30T02:16:28.836Z,55.44
2022-07-30T02:19:04.443Z,56.90
2022-07-30T02:21:38.861Z,57.08
2022-07-30T02:24:13.886Z,55.79
2022-07-30T02:26:43.576Z,58.82
2022-07-30T02:29:11.824Z,58.72
2022-07-30T02:31:40.729Z,58.28
2022-07-30T02:34:09.666Z,58.57
2022-07-30T02:36:38.400Z,58.19
2022-07-30T02:39:06.414Z,58.74
2022-07-30T02:41:38.846Z,58.08
2022-07-30T02:44:07.176Z,57.64
2022-07-30T02:46:36.643Z,58.82
2022-07-30T02:49:07.316Z,59.08
2022-07-30T02:51:36.255Z,59.57
2022-07-30T02:54:04.565Z,57.28
2022-07-30T02:56:32.985Z,58.01
2022-07-30T02:59:02.545Z,58.40
2022-07-30T03:01:31.595Z,58.33
2022-07-30T03:03:59.736Z,58.95
2022-07-30T03:06:28.006Z,59.31
2022-07-30T03:08:56.744Z,59.35
2022-07-30T03:11:25.156Z,59.54
2022-07-30T03:13:53.594Z,60.06
2022-07-30T03:16:23.024Z,60.02
2022-07-30T03:18:52.095Z,60.83
2022-07-30T03:21:20.936Z,59.31
2022-07-30T03:23:50.179Z,60.38
2022-07-30T03:26:20.575Z,59.96
2022-07-30T03:28:49.515Z,60.27
2022-07-30T03:31:17.826Z,59.15
2022-07-30T03:33:47.171Z,58.61
2022-07-30T03:36:16.005Z,59.35
2022-07-30T03:38:44.326Z,59.12
2022-07-30T03:41:12.375Z,59.30
2022-07-30T03:43:41.385Z,59.20
2022-07-30T03:46:10.976Z,58.67
2022-07-30T03:48:40.028Z,58.07
2022-07-30T03:51:11.945Z,58.95
2022-07-30T03:53:41.251Z,57.61
2022-07-30T03:56:14.335Z,59.20
2022-07-30T03:58:43.985Z,58.97
2022-07-30T04:01:12.615Z,58.57
2022-07-30T04:03:42.063Z,58.83
2022-07-30T04:06:09.864Z,59.66
2022-07-30T04:08:37.647Z,60.88
2022-07-30T04:11:06.365Z,59.63
2022-07-30T04:13:40.257Z,60.25
2022-07-30T04:16:39.548Z,61.04
2022-07-30T04:19:13.364Z,59.57
2022-07-30T04:21:42.357Z,59.65
2022-07-30T04:24:11.525Z,59.35
2022-07-30T04:26:39.947Z,60.38
2022-07-30T04:29:16.679Z,58.99
2022-07-30T04:31:46.723Z,59.28
2022-07-30T04:34:15.915Z,59.57
2022-07-30T04:36:45.401Z,59.29
2022-07-30T04:39:13.814Z,58.28
2022-07-30T04:41:48.886Z,59.02
2022-07-30T04:44:20.199Z,58.65
2022-07-30T04:46:49.369Z,58.97
2022-07-30T04:49:18.436Z,60.36
2022-07-30T04:51:47.078Z,59.15
2022-07-30T04:54:16.494Z,59.17
2022-07-30T04:56:53.802Z,57.77
2022-07-30T04:59:29.368Z,58.44
2022-07-30T05:01:59.527Z,59.08
2022-07-30T05:04:28.558Z,59.75
2022-07-30T05:06:57.301Z,59.45
2022-07-30T05:09:25.402Z,58.89
2022-07-30T05:11:54.775Z,58.63
2022-07-30T05:14:24.196Z,57.91
2022-07-30T05:16:52.756Z,56.63
2022-07-30T05:19:21.498Z,57.60
2022-07-30T05:21:49.745Z,56.39
2022-07-30T05:24:17.668Z,55.29
2022-07-30T05:26:46.856Z,55.20
2022-07-30T05:29:19.852Z,55.44
2022-07-30T05:31:49.025Z,55.93
2022-07-30T05:34:17.457Z,55.97
2022-07-30T05:36:45.538Z,56.67
2022-07-30T05:39:13.693Z,56.57
2022-07-30T05:41:42.637Z,55.13
2022-07-30T05:44:10.759Z,56.13
2022-07-30T05:46:38.693Z,56.89
2022-07-30T05:49:07.150Z,57.05
2022-07-30T05:51:35.169Z,57.13
2022-07-30T05:54:03.180Z,57.45
2022-07-30T05:56:32.658Z,57.11
2022-07-30T05:59:02.076Z,57.83
2022-07-30T06:01:31.058Z,58.12
2022-07-30T06:04:00.081Z,57.59
2022-07-30T06:06:35.278Z,56.67
2022-07-30T06:09:03.815Z,54.71
2022-07-30T06:11:31.655Z,54.46
2022-07-30T06:14:01.286Z,54.07
2022-07-30T06:16:29.597Z,52.05
2022-07-30T06:18:57.720Z,53.09
2022-07-30T06:21:27.374Z,52.42
2022-07-30T06:23:56.808Z,50.93
2022-07-30T06:26:24.646Z,50.01
2022-07-30T06:28:52.595Z,49.96
2022-07-30T06:31:20.889Z,49.74
2022-07-30T06:33:48.667Z,47.99
2022-07-30T06:36:16.567Z,47.93
2022-07-30T06:38:45.526Z,47.07
2022-07-30T06:41:13.487Z,49.60
2022-07-30T06:43:42.186Z,48.82
2022-07-30T06:46:12.870Z,47.04
2022-07-30T06:48:42.545Z,46.94
2022-07-30T06:51:10.874Z,46.68
2022-07-30T06:53:42.895Z,47.48
2022-07-30T06:56:18.875Z,46.68
2022-07-30T06:58:47.540Z,46.91
2022-07-30T07:01:18.011Z,46.79
2022-07-30T07:03:45.917Z,44.89
2022-07-30T07:06:13.705Z,45.70
2022-07-30T07:08:42.777Z,46.88
2022-07-30T07:11:11.687Z,44.49
2022-07-30T07:13:41.020Z,43.83
2022-07-30T07:16:10.661Z,43.05
2022-07-30T07:18:40.311Z,43.08
2022-07-30T07:21:08.675Z,43.02
2022-07-30T07:23:41.797Z,41.52
2022-07-30T07:26:13.247Z,43.64
2022-07-30T07:28:41.577Z,45.17
2022-07-30T07:31:10.947Z,44.17
2022-07-30T07:33:40.785Z,42.05
2022-07-30T07:36:08.556Z,43.32
2022-07-30T07:38:36.866Z,45.41
2022-07-30T07:41:05.834Z,45.92
2022-07-30T07:43:33.727Z,48.95
2022-07-30T07:46:02.721Z,53.44
2022-07-30T07:48:31.199Z,53.18
2022-07-30T07:51:00.759Z,53.16
2022-07-30T07:53:29.378Z,54.76
2022-07-30T07:55:57.917Z,55.22
2022-07-30T07:58:26.984Z,53.85
2022-07-30T08:00:55.593Z,54.08
2022-07-30T08:03:24.756Z,55.10
2022-07-30T08:06:02.079Z,52.90
2022-07-30T08:08:40.397Z,53.89
2022-07-30T08:11:10.057Z,56.93
2022-07-30T08:13:52.049Z,58.30
2022-07-30T08:16:32.905Z,58.11
2022-07-30T08:19:05.027Z,68.48
2022-07-30T08:21:33.336Z,69.81
2022-07-30T08:24:01.213Z,70.96
2022-07-30T08:26:30.200Z,69.41
2022-07-30T08:28:59.226Z,63.67
2022-07-30T08:31:27.540Z,62.25
2022-07-30T08:33:55.787Z,64.45
2022-07-30T08:36:25.995Z,71.36
2022-07-30T08:38:54.415Z,73.25
2022-07-30T08:41:22.898Z,73.15
2022-07-30T08:43:51.395Z,72.09
2022-07-30T08:46:21.826Z,71.07
2022-07-30T08:48:52.443Z,69.31
2022-07-30T08:51:20.287Z,68.38
2022-07-30T08:53:50.007Z,73.14
2022-07-30T08:56:20.196Z,70.80
2022-07-30T08:58:48.428Z,68.68
2022-07-30T09:01:17.496Z,68.81
2022-07-30T09:03:45.905Z,69.32
2022-07-30T09:06:15.148Z,70.18
2022-07-30T09:08:43.347Z,69.97
2022-07-30T09:11:12.036Z,73.30
2022-07-30T09:13:42.518Z,75.85
2022-07-30T09:16:25.267Z,75.31
2022-07-30T09:18:55.176Z,74.58
2022-07-30T09:21:28.850Z,75.86
2022-07-30T09:24:00.691Z,74.52
2022-07-30T09:26:30.495Z,73.61
2022-07-30T09:29:19.051Z,72.74
2022-07-30T09:32:04.641Z,75.43
2022-07-30T09:34:38.556Z,74.39
2022-07-30T09:37:16.491Z,75.26
2022-07-30T09:39:56.547Z,74.00
2022-07-30T09:42:29.242Z,78.98
2022-07-30T09:45:07.871Z,79.29
2022-07-30T09:47:38.566Z,84.81
2022-07-30T09:50:09.927Z,80.38
2022-07-30T09:52:43.820Z,78.92
2022-07-30T09:55:13.907Z,85.33
2022-07-30T09:57:57.690Z,85.79
2022-07-30T10:00:29.489Z,83.14
2022-07-30T10:03:00.639Z,86.56
2022-07-30T10:06:00.482Z,84.76
2022-07-30T10:08:41.620Z,87.97
2022-07-30T10:11:15.337Z,84.14
2022-07-30T10:13:45.797Z,85.36
2022-07-30T10:16:14.051Z,89.15
2022-07-30T10:18:45.238Z,91.45
2022-07-30T10:21:17.598Z,90.08
2022-07-30T10:23:50.459Z,91.00
2022-07-30T10:26:21.738Z,88.62
2022-07-30T10:28:51.936Z,88.74
2022-07-30T10:31:49.490Z,80.58
2022-07-30T10:34:08.656Z,78.32
2022-07-30T10:36:49.130Z,79.75
2022-07-30T10:39:22.286Z,83.31
2022-07-30T10:41:54.579Z,82.86
2022-07-30T10:44:35.108Z,81.33
2022-07-30T10:47:14.125Z,82.68
2022-07-30T10:49:43.248Z,86.53
2022-07-30T10:52:12.104Z,84.36
2022-07-30T10:54:45.338Z,80.96
2022-07-30T10:57:22.985Z,80.00
2022-07-30T11:00:00.776Z,78.66
2022-07-30T11:02:30.655Z,81.78
2022-07-30T11:05:44.931Z,85.57
2022-07-30T11:08:32.137Z,83.41
2022-07-30T11:11:19.626Z,86.10
2022-07-30T11:13:53.439Z,84.86
2022-07-30T11:16:34.268Z,81.19
2022-07-30T11:19:53.422Z,91.93
2022-07-30T11:22:29.695Z,84.47
2022-07-30T11:24:58.416Z,86.35
2022-07-30T11:27:41.435Z,84.79
2022-07-30T11:30:17.401Z,84.91
2022-07-30T11:32:48.438Z,81.54
2022-07-30T11:35:34.888Z,80.30
2022-07-30T11:38:18.934Z,83.94
2022-07-30T11:40:47.457Z,80.69
2022-07-30T11:43:35.119Z,81.74
2022-07-30T11:46:29.305Z,80.85
2022-07-30T11:49:05.320Z,83.09
2022-07-30T11:51:44.505Z,77.04
2022-07-30T11:54:12.997Z,78.15
2022-07-30T11:56:52.932Z,75.75
2022-07-30T11:59:21.142Z,76.95
2022-07-30T12:01:56.138Z,79.19
2022-07-30T12:04:24.757Z,76.46
2022-07-30T12:06:52.505Z,76.54
2022-07-30T12:09:28.990Z,74.88
2022-07-30T12:11:58.016Z,76.35
2022-07-30T12:14:25.889Z,77.75
2022-07-30T12:16:54.640Z,75.69
2022-07-30T12:19:23.194Z,74.43
2022-07-30T12:21:53.349Z,75.64
2022-07-30T12:24:26.487Z,77.92
2022-07-30T12:27:05.574Z,74.68
2022-07-30T12:29:35.232Z,75.45
2022-07-30T12:32:03.966Z,77.99
2022-07-30T12:34:31.816Z,73.48
2022-07-30T12:37:10.465Z,72.71
2022-07-30T12:39:40.588Z,76.17
2022-07-30T12:42:18.897Z,76.25
2022-07-30T12:44:49.374Z,74.06
2022-07-30T12:47:22.228Z,72.50
2022-07-30T12:49:53.186Z,67.69
2022-07-30T12:52:28.628Z,70.42
2022-07-30T12:55:05.438Z,70.44
2022-07-30T12:57:55.137Z,66.29
2022-07-30T13:00:24.959Z,64.42
2022-07-30T13:02:53.017Z,64.99
2022-07-30T13:05:21.205Z,65.10
2022-07-30T13:07:57.356Z,66.93
2022-07-30T13:10:30.061Z,67.00
2022-07-30T13:12:59.966Z,66.36
2022-07-30T13:15:28.046Z,68.23
2022-07-30T13:17:55.895Z,68.77
2022-07-30T13:20:24.217Z,73.88
2022-07-30T13:22:52.088Z,76.19
2022-07-30T13:25:19.885Z,75.20
2022-07-30T13:27:48.529Z,73.01
2022-07-30T13:30:16.575Z,76.87
2022-07-30T13:32:44.399Z,72.16
2022-07-30T13:35:12.526Z,73.06
2022-07-30T13:37:40.327Z,74.71
2022-07-30T13:40:09.235Z,75.49
2022-07-30T13:42:37.436Z,76.53
2022-07-30T13:45:07.594Z,72.25
2022-07-30T13:47:35.880Z,74.19
2022-07-30T13:50:04.311Z,73.45
2022-07-30T13:52:32.278Z,73.58
2022-07-30T13:55:00.126Z,73.39
2022-07-30T13:57:28.357Z,71.80
2022-07-30T13:59:56.146Z,73.26
2022-07-30T14:02:23.896Z,75.90
2022-07-30T14:04:52.234Z,74.21
2022-07-30T14:07:20.273Z,74.69
2022-07-30T14:09:52.682Z,73.53
2022-07-30T14:12:22.420Z,74.81
2022-07-30T14:14:50.346Z,74.40
2022-07-30T14:17:18.306Z,70.82
2022-07-30T14:19:47.352Z,66.69
2022-07-30T14:22:15.188Z,69.51
2022-07-30T14:24:44.357Z,67.38
2022-07-30T14:27:12.588Z,64.49
2022-07-30T14:29:40.777Z,64.45
2022-07-30T14:32:10.460Z,65.60
2022-07-30T14:34:38.595Z,65.35
2022-07-30T14:37:07.078Z,65.94
2022-07-30T14:39:42.457Z,63.34
2022-07-30T14:42:10.547Z,65.76
2022-07-30T14:44:38.520Z,65.39
2022-07-30T14:47:07.363Z,65.37
2022-07-30T14:49:35.786Z,65.61
2022-07-30T14:52:03.794Z,66.83
2022-07-30T14:54:32.658Z,63.00
2022-07-30T14:57:01.053Z,64.46
2022-07-30T14:59:29.817Z,63.79
2022-07-30T15:01:58.112Z,63.83
2022-07-30T15:04:26.019Z,63.42
2022-07-30T15:06:54.477Z,62.97
2022-07-30T15:09:22.756Z,63.72
2022-07-30T15:12:08.885Z,62.72
2022-07-30T15:14:39.974Z,61.09
2022-07-30T15:17:08.270Z,62.88
2022-07-30T15:19:36.195Z,62.05
2022-07-30T15:22:05.549Z,60.67
2022-07-30T15:24:33.924Z,61.19
2022-07-30T15:27:01.725Z,58.87
2022-07-30T15:29:30.999Z,59.94
2022-07-30T15:32:01.404Z,61.43
2022-07-30T15:34:34.474Z,60.14
2022-07-30T15:37:03.199Z,62.08
2022-07-30T15:39:33.185Z,62.34
2022-07-30T15:42:02.842Z,61.70
2022-07-30T15:44:31.966Z,60.92
2022-07-30T15:47:00.736Z,59.98
2022-07-30T15:49:29.165Z,61.22
2022-07-30T15:51:59.821Z,62.52
2022-07-30T15:54:28.566Z,62.80
2022-07-30T15:57:01.089Z,62.03
2022-07-30T15:59:30.519Z,62.42
2022-07-30T16:01:59.228Z,61.40
2022-07-30T16:04:31.483Z,60.94
2022-07-30T16:07:01.507Z,60.91
2022-07-30T16:09:29.953Z,58.41
2022-07-30T16:11:58.587Z,60.37
2022-07-30T16:14:27.117Z,58.52
2022-07-30T16:16:55.429Z,59.20
2022-07-30T16:19:23.240Z,57.81
2022-07-30T16:21:51.341Z,58.25
2022-07-30T16:24:19.781Z,58.93
2022-07-30T16:26:47.637Z,59.90
2022-07-30T16:29:15.549Z,59.98
2022-07-30T16:31:44.060Z,59.66
2022-07-30T16:34:11.859Z,58.40
2022-07-30T16:36:39.845Z,58.71
2022-07-30T16:39:08.024Z,60.09
2022-07-30T16:41:36.694Z,59.45
2022-07-30T16:44:05.059Z,58.84
2022-07-30T16:46:33.646Z,59.60
2022-07-30T16:49:01.836Z,60.63
2022-07-30T16:51:30.675Z,60.64
2022-07-30T16:53:59.037Z,60.19
2022-07-30T16:56:27.083Z,58.35
2022-07-30T16:58:55.036Z,58.30
2022-07-30T17:01:23.507Z,59.31
2022-07-30T17:03:51.366Z,62.00
2022-07-30T17:06:19.401Z,60.06
2022-07-30T17:08:47.594Z,60.87
2022-07-30T17:11:45.873Z,60.77
2022-07-30T17:14:04.956Z,62.04
2022-07-30T17:16:32.824Z,63.77
2022-07-30T17:19:00.624Z,61.58
2022-07-30T17:21:38.268Z,61.58
2022-07-30T17:24:11.468Z,59.74
2022-07-30T17:26:43.289Z,60.30
2022-07-30T17:29:14.963Z,62.97
2022-07-30T17:31:44.579Z,61.65
2022-07-30T17:34:14.144Z,64.05
2022-07-30T17:36:50.191Z,64.54
2022-07-30T17:40:26.375Z,64.14
2022-07-30T17:42:11.718Z,64.63
2022-07-30T17:44:41.515Z,65.87
2022-07-30T17:47:14.383Z,66.22
2022-07-30T17:49:44.147Z,64.94
2022-07-30T17:52:12.016Z,66.50
2022-07-30T17:54:39.882Z,65.46
2022-07-30T17:57:08.415Z,65.38
2022-07-30T17:59:36.186Z,66.50
2022-07-30T18:02:05.211Z,67.06
2022-07-30T18:04:34.446Z,67.63
2022-07-30T18:07:02.868Z,67.49
2022-07-30T18:09:38.962Z,68.60
2022-07-30T18:12:08.826Z,68.79
2022-07-30T18:14:36.922Z,68.30
2022-07-30T18:17:05.731Z,66.74
2022-07-30T18:19:34.517Z,67.36
2022-07-30T18:22:03.176Z,66.97
2022-07-30T18:24:32.427Z,66.87
2022-07-30T18:27:00.558Z,66.16
2022-07-30T18:29:28.456Z,68.39
2022-07-30T18:31:56.809Z,67.70
2022-07-30T18:34:25.036Z,68.31
2022-07-30T18:39:20.999Z,69.46
2022-07-30T18:41:49.247Z,68.95
2022-07-30T18:44:17.389Z,70.72
2022-07-30T18:46:45.366Z,68.62
2022-07-30T18:49:35.497Z,67.43
2022-07-30T18:52:03.205Z,69.73
2022-07-30T18:54:31.687Z,71.54
2022-07-30T18:56:59.671Z,69.63
2022-07-30T18:59:27.528Z,70.25
2022-07-30T19:01:55.910Z,71.94
2022-07-30T19:04:23.717Z,71.17
2022-07-30T19:06:51.540Z,74.27
2022-07-30T19:09:19.707Z,70.13
2022-07-30T19:11:47.917Z,72.32
2022-07-30T19:14:16.328Z,71.29
2022-07-30T19:16:45.265Z,73.30
2022-07-30T19:19:15.266Z,72.22
2022-07-30T19:21:43.496Z,73.74
2022-07-30T19:24:12.323Z,74.32
2022-07-30T19:26:40.559Z,73.90
2022-07-30T19:29:08.409Z,73.56
2022-07-30T19:31:36.785Z,74.62
2022-07-30T19:34:05.337Z,76.22
2022-07-30T19:36:33.760Z,75.59
2022-07-30T19:39:07.426Z,73.27
2022-07-30T19:41:42.684Z,75.19
2022-07-30T19:44:13.669Z,74.46
2022-07-30T19:49:40.694Z,74.67
2022-07-30T19:52:25.239Z,72.55
2022-07-30T19:54:54.178Z,74.77
2022-07-30T19:57:22.102Z,75.72
2022-07-30T19:59:59.734Z,75.19
2022-07-30T20:02:42.327Z,74.84
2022-07-30T20:05:11.955Z,75.92
2022-07-30T20:07:42.857Z,75.54
2022-07-30T20:10:13.235Z,76.70
2022-07-30T20:12:49.229Z,75.96
2022-07-30T20:15:18.103Z,76.67
2022-07-30T20:17:46.567Z,77.44
2022-07-30T20:20:15.104Z,78.79
2022-07-30T20:22:43.567Z,77.78
2022-07-30T20:25:11.650Z,76.14
2022-07-30T20:27:41.110Z,75.07
2022-07-30T20:30:11.525Z,77.92
2022-07-30T20:32:43.500Z,78.25
2022-07-30T20:35:15.178Z,76.97
2022-07-30T20:37:54.657Z,80.51
2022-07-30T20:40:26.977Z,78.40
2022-07-30T20:42:55.185Z,77.70
2022-07-30T20:45:24.851Z,77.84
2022-07-30T20:47:56.727Z,75.58
2022-07-30T20:50:30.217Z,77.37
2022-07-30T20:52:59.696Z,76.23
2022-07-30T20:55:28.149Z,76.78
2022-07-30T20:58:07.928Z,75.89
2022-07-30T21:00:42.384Z,77.65
2022-07-30T21:03:21.397Z,80.29
2022-07-30T21:05:52.571Z,78.75
2022-07-30T21:08:25.305Z,80.32
2022-07-30T21:10:55.005Z,80.73
2022-07-30T21:13:24.876Z,80.20
2022-07-30T21:16:01.648Z,80.63
2022-07-30T21:18:31.381Z,78.80
2022-07-30T21:21:00.637Z,78.86
2022-07-30T21:23:28.584Z,78.79
2022-07-30T21:26:02.985Z,78.40
2022-07-30T21:28:35.925Z,78.47
2022-07-30T21:31:07.177Z,78.68
2022-07-30T21:33:37.258Z,78.23
2022-07-30T21:36:10.446Z,78.19
2022-07-30T21:38:41.872Z,78.48
2022-07-30T21:41:40.130Z,81.23
2022-07-30T21:44:09.803Z,77.84
2022-07-30T21:46:38.118Z,76.60
2022-07-30T21:49:07.964Z,77.23
2022-07-30T21:51:36.706Z,75.69
2022-07-30T21:54:07.321Z,77.50
2022-07-30T21:56:35.239Z,75.69
2022-07-30T21:59:09.687Z,75.99
2022-07-30T22:01:38.655Z,76.59
2022-07-30T22:04:08.428Z,75.08
2022-07-30T22:06:40.091Z,74.96
2022-07-30T22:09:19.531Z,75.68
2022-07-30T22:12:01.489Z,75.75
2022-07-30T22:14:32.352Z,76.24
2022-07-30T22:17:00.995Z,75.65
2022-07-30T22:19:32.697Z,75.90
2022-07-30T22:22:26.286Z,75.48
2022-07-30T22:24:50.104Z,74.36
2022-07-30T22:27:17.856Z,75.53
2022-07-30T22:29:50.076Z,75.30
2022-07-30T22:32:17.956Z,78.20
2022-07-30T22:34:46.116Z,75.37
2022-07-30T22:37:17.345Z,76.64
2022-07-30T22:39:51.839Z,75.96
2022-07-30T22:42:24.533Z,76.73
2022-07-30T22:44:53.253Z,75.67
2022-07-30T22:47:50.682Z,76.32
2022-07-30T22:50:11.528Z,77.13
2022-07-30T22:52:48.969Z,77.84
2022-07-30T22:55:27.976Z,77.62
2022-07-30T22:57:57.932Z,78.69
2022-07-30T23:00:27.317Z,78.31
2022-07-30T23:02:57.024Z,77.55
2022-07-30T23:05:25.406Z,75.76
2022-07-30T23:07:54.225Z,78.02
2022-07-30T23:10:24.777Z,77.82
2022-07-30T23:12:16.584Z,74.63
2022-07-30T23:12:56.012Z,78.75
2022-07-30T23:15:23.934Z,78.11
2022-07-30T23:17:51.764Z,79.41
2022-07-30T23:20:20.863Z,78.43
2022-07-30T23:22:48.921Z,78.62
2022-07-30T23:25:17.023Z,77.73
2022-07-30T23:27:46.930Z,76.48
2022-07-30T23:30:15.154Z,75.27
2022-07-30T23:32:42.923Z,76.23
2022-07-30T23:35:11.563Z,76.15
2022-07-30T23:37:49.130Z,74.69
2022-07-30T23:40:18.803Z,74.82
2022-07-30T23:42:47.928Z,75.17
2022-07-30T23:45:15.664Z,74.23
2022-07-30T23:47:58.000Z,74.48
2022-07-30T23:50:31.792Z,74.35
2022-07-30T23:53:03.824Z,74.57
2022-07-30T23:55:32.067Z,76.51
2022-07-30T23:58:00.417Z,76.09
